TFFF Airport Information

Runway Information
Runway 10 Length 10826 ft width 147 ft
Elevation 10 ft Threshold 0 ft Heading 80
Runway 28 Length 10826 ft Width 147 ft
Elevation 14 ft Threshold 984 ft Heading 260
Airport Frequencies
Type APP Name FORT DE FR Frequency 121 MHZ
Type ATIS Name ATIS Frequency 127.85 MHZ
Type GND Name GND Frequency 121.9 MHZ
Type TWR Name FORT DE FR Frequency 118.5 MHZ
Airport Navaids
Type VOR-DME Name Fort De France Frequency 113300 KHZ
Type NDB Name Fort De France Frequency 329 KHZ
Airport Weather Information & NOTAM
ADDS - METARS form results

(1823 UTC 17 July 2019)
Data provider http://aviationweather.gov/metar/data/
 
METAR text: TFFF 171800Z AUTO 10015KT 9999 SCT031 SCT042 31/24 Q1016 NOSIG
Conditions at: TFFF (LE LAMENTIN/MART, MQ) observed 1800 UTC 17 July 2019
Temperature: 31.0°C (88°F)
Dewpoint: 24.0°C (75°F) [RH = 66%]
Pressure (altimeter): 30.00 inches Hg (1016.0 mb)
Winds: from the E (100 degrees) at 17 MPH (15 knots; 7.7 m/s)
Visibility: 6 or more miles (10+ km)
Ceiling: at least 12,000 feet AGL
Clouds: scattered clouds at 3100 feet AGL
scattered clouds at 4200 feet AGL
Weather: no significant weather observed at this time

METAR text: TFFF 171730Z AUTO 11015KT 9999 SCT033 BKN039 BKN046 30/23 Q1016 TEMPO 09015G25KT
Conditions at: TFFF (LE LAMENTIN/MART, MQ) observed 1730 UTC 17 July 2019
Temperature: 30.0°C (86°F)
Dewpoint: 23.0°C (73°F) [RH = 66%]
Pressure (altimeter): 30.00 inches Hg (1016.0 mb)
Winds: from the ESE (110 degrees) at 17 MPH (15 knots; 7.7 m/s)
Visibility: 6 or more miles (10+ km)
Ceiling: 3900 feet AGL
Clouds: scattered clouds at 3300 feet AGL
broken clouds at 3900 feet AGL
broken clouds at 4600 feet AGL
Weather: no significant weather observed at this time

Forecast for: TFFF (LE LAMENTIN/MART, MQ)
Text: TAF TFFF 171600Z 1718/1818 10015KT 9999 SCT035
Forecast period: 1800 UTC 17 July 2019 to 1800 UTC 18 July 2019
Forecast type: FROM: standard forecast or significant change
Winds: from the E (100 degrees) at 17 MPH (15 knots; 7.7 m/s)
Visibility: 6 or more miles 10+ km)
Ceiling: at least 12,000 feet AGL
Clouds: scattered clouds at 3500 feet AGL
Weather: no significant weather forecast for this period
Text: TEMPO 1722/1818 3000 SHRA BKN018TCU
Forecast period: 2200 UTC 17 July 2019 to 1800 UTC 18 July 2019
Forecast type: TEMPORARY: The following changes expected for less than half the time period
Visibility: 1.86 miles (2.99 km)
Ceiling: 1800 feet AGL
Clouds: broken clouds at 1800 feet AGL
Weather: SHRA  (rain showers)
Text: PROB30
Forecast period: 0900 to 1200 UTC 18 July 2019
Forecast type: TEMPORARY: The following changes expected for less than half the time period
Winds: variable direction winds at 17 MPH (15 knots; 7.7 m/s)
gusting to 29 MPH (25 knots; 12.9 m/s)
Visibility: 0.75 miles (1.21 km)
Ceiling: 1200 feet AGL
Clouds: broken clouds at 1200 feet AGL
Weather: -TSRA  (light rain associated with thunderstorm(s))